sensor_id;sensor_type;location;lat;lon;timestamp;pressure;altitude;pressure_sealevel;temperature;humidity
64253;BME280;50592;52.958;-7.470;2022-07-26T00:01:32;101041.91;;;12.93;77.97
64253;BME280;50592;52.958;-7.470;2022-07-26T00:03:59;101039.69;;;12.88;78.21
64253;BME280;50592;52.958;-7.470;2022-07-26T00:06:24;101036.91;;;12.89;77.95
64253;BME280;50592;52.958;-7.470;2022-07-26T00:08:50;101036.34;;;12.86;78.64
64253;BME280;50592;52.958;-7.470;2022-07-26T00:11:17;101044.84;;;12.89;78.44
64253;BME280;50592;52.958;-7.470;2022-07-26T00:13:43;101031.72;;;12.88;78.60
64253;BME280;50592;52.958;-7.470;2022-07-26T00:16:09;101041.06;;;12.92;78.49
64253;BME280;50592;52.958;-7.470;2022-07-26T00:18:35;101044.72;;;12.91;78.77
64253;BME280;50592;52.958;-7.470;2022-07-26T00:21:01;101042.19;;;12.89;78.74
64253;BME280;50592;52.958;-7.470;2022-07-26T00:23:27;101051.13;;;12.88;78.80
64253;BME280;50592;52.958;-7.470;2022-07-26T00:25:53;101051.13;;;12.88;79.25
64253;BME280;50592;52.958;-7.470;2022-07-26T00:28:19;101046.81;;;12.87;79.06
64253;BME280;50592;52.958;-7.470;2022-07-26T00:30:45;101057.28;;;12.89;79.28
64253;BME280;50592;52.958;-7.470;2022-07-26T00:33:11;101048.31;;;12.90;79.09
64253;BME280;50592;52.958;-7.470;2022-07-26T00:35:37;101051.13;;;12.88;79.07
64253;BME280;50592;52.958;-7.470;2022-07-26T00:38:03;101051.13;;;12.88;79.54
64253;BME280;50592;52.958;-7.470;2022-07-26T00:40:29;101050.75;;;12.83;79.71
64253;BME280;50592;52.958;-7.470;2022-07-26T00:42:55;101048.09;;;12.83;79.84
64253;BME280;50592;52.958;-7.470;2022-07-26T00:45:20;101049.34;;;12.79;79.83
64253;BME280;50592;52.958;-7.470;2022-07-26T00:47:46;101050.47;;;12.76;80.40
64253;BME280;50592;52.958;-7.470;2022-07-26T00:50:14;101053.97;;;12.77;80.39
64253;BME280;50592;52.958;-7.470;2022-07-26T00:52:42;101057.44;;;12.77;79.91
64253;BME280;50592;52.958;-7.470;2022-07-26T00:55:08;101053.53;;;12.82;79.63
64253;BME280;50592;52.958;-7.470;2022-07-26T00:57:35;101052.69;;;12.81;80.08
64253;BME280;50592;52.958;-7.470;2022-07-26T01:00:05;101056.19;;;12.82;79.94
64253;BME280;50592;52.958;-7.470;2022-07-26T01:02:32;101053.97;;;12.77;79.98
64253;BME280;50592;52.958;-7.470;2022-07-26T01:04:58;101053.13;;;12.76;80.35
64253;BME280;50592;52.958;-7.470;2022-07-26T01:07:24;101057.72;;;12.74;80.48
64253;BME280;50592;52.958;-7.470;2022-07-26T01:09:50;101057.72;;;12.74;80.65
64253;BME280;50592;52.958;-7.470;2022-07-26T01:12:15;101058.72;;;12.73;80.54
64253;BME280;50592;52.958;-7.470;2022-07-26T01:14:44;101064.72;;;12.75;80.76
64253;BME280;50592;52.958;-7.470;2022-07-26T01:17:11;101061.38;;;12.73;80.68
64253;BME280;50592;52.958;-7.470;2022-07-26T01:19:37;101052.44;;;12.74;80.74
64253;BME280;50592;52.958;-7.470;2022-07-26T01:22:03;101050.63;;;12.75;80.89
64253;BME280;50592;52.958;-7.470;2022-07-26T01:24:29;101055.22;;;12.73;80.89
64253;BME280;50592;52.958;-7.470;2022-07-26T01:26:55;101051.75;;;12.72;80.88
64253;BME280;50592;52.958;-7.470;2022-07-26T01:29:25;101054.41;;;12.72;81.00
64253;BME280;50592;52.958;-7.470;2022-07-26T01:31:51;101054.78;;;12.77;80.67
64253;BME280;50592;52.958;-7.470;2022-07-26T01:34:17;101044.31;;;12.86;80.46
64253;BME280;50592;52.958;-7.470;2022-07-26T01:36:43;101043.59;;;12.84;80.38
64253;BME280;50592;52.958;-7.470;2022-07-26T01:39:09;101036.22;;;12.77;80.56
64253;BME280;50592;52.958;-7.470;2022-07-26T01:41:35;101038.72;;;12.79;81.02
64253;BME280;50592;52.958;-7.470;2022-07-26T01:44:01;101040.16;;;12.73;80.65
64253;BME280;50592;52.958;-7.470;2022-07-26T01:46:27;101037.66;;;12.72;80.93
64253;BME280;50592;52.958;-7.470;2022-07-26T01:48:52;101038.78;;;12.69;80.72
64253;BME280;50592;52.958;-7.470;2022-07-26T01:51:18;101045.47;;;12.73;81.03
64253;BME280;50592;52.958;-7.470;2022-07-26T01:53:44;101039.44;;;12.71;80.79
64253;BME280;50592;52.958;-7.470;2022-07-26T01:56:12;101038.63;;;12.71;80.87
64253;BME280;50592;52.958;-7.470;2022-07-26T01:58:38;101036.56;;;12.64;81.22
64253;BME280;50592;52.958;-7.470;2022-07-26T02:01:04;101039.47;;;12.61;81.42
64253;BME280;50592;52.958;-7.470;2022-07-26T02:03:29;101029.28;;;12.57;81.15
64253;BME280;50592;52.958;-7.470;2022-07-26T02:05:55;101035.72;;;12.54;81.68
64253;BME280;50592;52.958;-7.470;2022-07-26T02:08:21;101027.78;;;12.54;81.34
64253;BME280;50592;52.958;-7.470;2022-07-26T02:10:47;101024.13;;;12.55;81.14
64253;BME280;50592;52.958;-7.470;2022-07-26T02:13:39;101021.34;;;12.57;81.40
64253;BME280;50592;52.958;-7.470;2022-07-26T02:16:08;101036.44;;;12.56;81.28
64253;BME280;50592;52.958;-7.470;2022-07-26T02:18:34;101027.78;;;12.54;81.34
64253;BME280;50592;52.958;-7.470;2022-07-26T02:21:03;101019.66;;;12.56;81.51
64253;BME280;50592;52.958;-7.470;2022-07-26T02:23:30;101025.97;;;12.55;81.33
64253;BME280;50592;52.958;-7.470;2022-07-26T02:25:56;101023.16;;;12.56;81.40
64253;BME280;50592;52.958;-7.470;2022-07-26T02:28:22;101027.63;;;12.56;81.00
64253;BME280;50592;52.958;-7.470;2022-07-26T02:30:49;101025.25;;;12.52;81.14
64253;BME280;50592;52.958;-7.470;2022-07-26T02:33:15;101027.06;;;12.52;81.50
64253;BME280;50592;52.958;-7.470;2022-07-26T02:35:42;101026.81;;;12.45;81.77
64253;BME280;50592;52.958;-7.470;2022-07-26T02:38:10;101033.09;;;12.44;82.03
64253;BME280;50592;52.958;-7.470;2022-07-26T02:40:37;101027.25;;;12.40;82.05
64253;BME280;50592;52.958;-7.470;2022-07-26T02:43:05;101035.06;;;12.42;81.58
64253;BME280;50592;52.958;-7.470;2022-07-26T02:45:31;101035.44;;;12.47;81.85
64253;BME280;50592;52.958;-7.470;2022-07-26T02:47:57;101036.72;;;12.53;81.52
64253;BME280;50592;52.958;-7.470;2022-07-26T02:50:24;101038.09;;;12.57;81.06
64253;BME280;50592;52.958;-7.470;2022-07-26T02:52:51;101033.63;;;12.58;80.94
64253;BME280;50592;52.958;-7.470;2022-07-26T02:55:21;101033.06;;;12.54;81.00
64253;BME280;50592;52.958;-7.470;2022-07-26T02:57:47;101040.63;;;12.49;81.26
64253;BME280;50592;52.958;-7.470;2022-07-26T03:00:15;101036.16;;;12.49;81.42
64253;BME280;50592;52.958;-7.470;2022-07-26T03:02:42;101036.28;;;12.48;81.48
64253;BME280;50592;52.958;-7.470;2022-07-26T03:05:08;101035.16;;;12.50;81.05
64253;BME280;50592;52.958;-7.470;2022-07-26T03:07:34;101040.59;;;12.59;80.98
64253;BME280;50592;52.958;-7.470;2022-07-26T03:10:00;101043.66;;;12.64;80.62
64253;BME280;50592;52.958;-7.470;2022-07-26T03:12:26;101041.16;;;12.62;80.28
64253;BME280;50592;52.958;-7.470;2022-07-26T03:14:52;101043.97;;;12.61;80.59
64253;BME280;50592;52.958;-7.470;2022-07-26T03:17:18;101038.66;;;12.61;80.64
64253;BME280;50592;52.958;-7.470;2022-07-26T03:19:44;101032.50;;;12.60;80.69
64253;BME280;50592;52.958;-7.470;2022-07-26T03:22:10;101032.66;;;12.59;80.12
64253;BME280;50592;52.958;-7.470;2022-07-26T03:24:36;101033.50;;;12.49;80.45
64253;BME280;50592;52.958;-7.470;2022-07-26T03:27:02;101032.94;;;12.46;80.84
64253;BME280;50592;52.958;-7.470;2022-07-26T03:29:28;101045.53;;;12.44;80.83
64253;BME280;50592;52.958;-7.470;2022-07-26T03:31:54;101056.13;;;12.44;80.73
64253;BME280;50592;52.958;-7.470;2022-07-26T03:34:20;101075.94;;;12.39;80.91
64253;BME280;50592;52.958;-7.470;2022-07-26T03:36:46;101071.06;;;12.35;81.40
64253;BME280;50592;52.958;-7.470;2022-07-26T03:39:12;101070.63;;;12.39;81.31
64253;BME280;50592;52.958;-7.470;2022-07-26T03:41:38;101072.72;;;12.46;81.38
64253;BME280;50592;52.958;-7.470;2022-07-26T03:44:04;101065.03;;;12.43;81.26
64253;BME280;50592;52.958;-7.470;2022-07-26T03:46:29;101059.34;;;12.37;81.23
64253;BME280;50592;52.958;-7.470;2022-07-26T03:48:55;101051.53;;;12.26;81.61
64253;BME280;50592;52.958;-7.470;2022-07-26T03:51:21;101050.25;;;12.20;81.68
64253;BME280;50592;52.958;-7.470;2022-07-26T03:53:48;101048.19;;;12.24;81.74
64253;BME280;50592;52.958;-7.470;2022-07-26T03:56:14;101054.19;;;12.26;81.65
64253;BME280;50592;52.958;-7.470;2022-07-26T03:59:01;101046.38;;;12.24;81.75
64253;BME280;50592;52.958;-7.470;2022-07-26T04:01:28;101043.72;;;12.24;81.84
64253;BME280;50592;52.958;-7.470;2022-07-26T04:03:54;101058.09;;;12.22;81.84
64253;BME280;50592;52.958;-7.470;2022-07-26T04:06:20;101055.72;;;12.19;81.98
64253;BME280;50592;52.958;-7.470;2022-07-26T04:08:46;101058.66;;;12.25;82.10
64253;BME280;50592;52.958;-7.470;2022-07-26T04:11:12;101059.06;;;12.31;82.06
64253;BME280;50592;52.958;-7.470;2022-07-26T04:13:38;101063.94;;;12.35;81.87
64253;BME280;50592;52.958;-7.470;2022-07-26T04:16:05;101054.00;;;12.47;81.63
64253;BME280;50592;52.958;-7.470;2022-07-26T04:18:31;101055.00;;;12.56;81.34
64253;BME280;50592;52.958;-7.470;2022-07-26T04:20:57;101051.63;;;12.64;81.13
64253;BME280;50592;52.958;-7.470;2022-07-26T04:23:22;101056.22;;;12.72;80.72
64253;BME280;50592;52.958;-7.470;2022-07-26T04:25:48;101048.81;;;12.75;80.52
64253;BME280;50592;52.958;-7.470;2022-07-26T04:28:14;101052.28;;;12.76;80.47
64253;BME280;50592;52.958;-7.470;2022-07-26T04:30:40;101053.69;;;12.70;80.34
64253;BME280;50592;52.958;-7.470;2022-07-26T04:33:06;101056.50;;;12.59;80.65
64253;BME280;50592;52.958;-7.470;2022-07-26T04:35:32;101054.56;;;12.51;80.76
64253;BME280;50592;52.958;-7.470;2022-07-26T04:37:58;101064.75;;;12.46;81.56
64253;BME280;50592;52.958;-7.470;2022-07-26T04:40:25;101064.09;;;12.44;81.41
64253;BME280;50592;52.958;-7.470;2022-07-26T04:42:53;101063.38;;;12.42;81.46
64253;BME280;50592;52.958;-7.470;2022-07-26T04:45:19;101062.41;;;12.43;81.73
64253;BME280;50592;52.958;-7.470;2022-07-26T04:47:47;101070.63;;;12.39;81.55
64253;BME280;50592;52.958;-7.470;2022-07-26T04:50:15;101056.41;;;12.40;81.75
64253;BME280;50592;52.958;-7.470;2022-07-26T04:52:41;101055.44;;;12.42;81.72
64253;BME280;50592;52.958;-7.470;2022-07-26T04:55:08;101064.75;;;12.46;81.76
64253;BME280;50592;52.958;-7.470;2022-07-26T04:57:34;101059.31;;;12.47;81.62
64253;BME280;50592;52.958;-7.470;2022-07-26T05:00:01;101057.38;;;12.49;81.66
64253;BME280;50592;52.958;-7.470;2022-07-26T05:02:27;101055.13;;;12.55;81.37
64253;BME280;50592;52.958;-7.470;2022-07-26T05:04:53;101052.88;;;12.60;81.08
64253;BME280;50592;52.958;-7.470;2022-07-26T05:07:19;101045.34;;;12.65;80.82
64253;BME280;50592;52.958;-7.470;2022-07-26T05:09:45;101051.34;;;12.67;80.80
64253;BME280;50592;52.958;-7.470;2022-07-26T05:12:10;101043.66;;;12.64;80.77
64253;BME280;50592;52.958;-7.470;2022-07-26T05:14:36;101056.63;;;12.67;81.10
64253;BME280;50592;52.958;-7.470;2022-07-26T05:17:03;101052.84;;;12.70;80.62
64253;BME280;50592;52.958;-7.470;2022-07-26T05:19:29;101061.38;;;12.73;80.69
64253;BME280;50592;52.958;-7.470;2022-07-26T05:21:54;101058.44;;;12.76;80.60
64253;BME280;50592;52.958;-7.470;2022-07-26T05:24:20;101069.59;;;12.80;80.82
64253;BME280;50592;52.958;-7.470;2022-07-26T05:26:46;101070.13;;;12.84;80.64
64253;BME280;50592;52.958;-7.470;2022-07-26T05:29:12;101070.97;;;12.84;80.28
64253;BME280;50592;52.958;-7.470;2022-07-26T05:31:38;101073.06;;;12.81;80.80
64253;BME280;50592;52.958;-7.470;2022-07-26T05:34:03;101073.91;;;12.81;80.80
64253;BME280;50592;52.958;-7.470;2022-07-26T05:36:29;101077.69;;;12.78;80.40
64253;BME280;50592;52.958;-7.470;2022-07-26T05:38:55;101074.63;;;12.73;80.62
64253;BME280;50592;52.958;-7.470;2022-07-26T05:41:21;101078.00;;;12.75;80.94
64253;BME280;50592;52.958;-7.470;2022-07-26T05:43:47;101076.84;;;12.78;80.66
64253;BME280;50592;52.958;-7.470;2022-07-26T05:46:13;101087.31;;;12.80;80.74
64253;BME280;50592;52.958;-7.470;2022-07-26T05:48:41;101081.59;;;12.84;80.50
64253;BME280;50592;52.958;-7.470;2022-07-26T05:51:08;101085.47;;;12.90;80.78
64253;BME280;50592;52.958;-7.470;2022-07-26T05:53:34;101088.69;;;12.94;80.48
64253;BME280;50592;52.958;-7.470;2022-07-26T05:56:01;101093.56;;;12.98;80.18
64253;BME280;50592;52.958;-7.470;2022-07-26T05:58:26;101093.41;;;13.00;80.27
64253;BME280;50592;52.958;-7.470;2022-07-26T06:00:52;101098.28;;;13.05;79.94
64253;BME280;50592;52.958;-7.470;2022-07-26T06:03:18;101094.09;;;13.02;80.08
64253;BME280;50592;52.958;-7.470;2022-07-26T06:05:48;101100.41;;;13.01;80.44
64253;BME280;50592;52.958;-7.470;2022-07-26T06:08:15;101100.56;;;12.99;80.12
64253;BME280;50592;52.958;-7.470;2022-07-26T06:10:41;101108.94;;;12.95;80.33
64253;BME280;50592;52.958;-7.470;2022-07-26T06:13:07;101110.19;;;12.90;80.99
64253;BME280;50592;52.958;-7.470;2022-07-26T06:15:32;101107.56;;;12.81;81.17
64253;BME280;50592;52.958;-7.470;2022-07-26T06:17:58;101104.50;;;12.75;81.51
64253;BME280;50592;52.958;-7.470;2022-07-26T06:20:24;101110.41;;;12.69;81.90
64253;BME280;50592;52.958;-7.470;2022-07-26T06:22:50;101113.84;;;12.70;82.08
64253;BME280;50592;52.958;-7.470;2022-07-26T06:25:17;101116.78;;;12.67;81.87
64253;BME280;50592;52.958;-7.470;2022-07-26T06:27:42;101125.75;;;12.56;82.77
64253;BME280;50592;52.958;-7.470;2022-07-26T06:30:09;101122.56;;;12.42;83.21
64253;BME280;50592;52.958;-7.470;2022-07-26T06:32:35;101127.44;;;12.37;83.46
64253;BME280;50592;52.958;-7.470;2022-07-26T06:35:01;101128.00;;;12.31;84.11
64253;BME280;50592;52.958;-7.470;2022-07-26T06:37:26;101131.59;;;12.30;84.35
64253;BME280;50592;52.958;-7.470;2022-07-26T06:39:52;101144.03;;;12.29;84.08
64253;BME280;50592;52.958;-7.470;2022-07-26T06:42:18;101139.69;;;12.28;84.89
64253;BME280;50592;52.958;-7.470;2022-07-26T06:44:44;101141.09;;;12.32;85.00
64253;BME280;50592;52.958;-7.470;2022-07-26T06:47:10;101141.09;;;12.32;85.04
64253;BME280;50592;52.958;-7.470;2022-07-26T06:49:36;101152.81;;;12.39;85.22
64253;BME280;50592;52.958;-7.470;2022-07-26T06:52:02;101139.56;;;12.39;85.09
64253;BME280;50592;52.958;-7.470;2022-07-26T06:54:28;101151.84;;;12.40;85.15
64253;BME280;50592;52.958;-7.470;2022-07-26T06:56:54;101153.38;;;12.43;85.65
64253;BME280;50592;52.958;-7.470;2022-07-26T06:59:19;101159.13;;;12.48;85.47
64253;BME280;50592;52.958;-7.470;2022-07-26T07:01:45;101155.34;;;12.51;85.56
64253;BME280;50592;52.958;-7.470;2022-07-26T07:04:11;101155.91;;;12.55;85.67
64253;BME280;50592;52.958;-7.470;2022-07-26T07:06:37;101159.22;;;12.57;85.84
64253;BME280;50592;52.958;-7.470;2022-07-26T07:09:03;101159.50;;;12.53;86.32
64253;BME280;50592;52.958;-7.470;2022-07-26T07:11:29;101158.28;;;12.58;85.82
64253;BME280;50592;52.958;-7.470;2022-07-26T07:13:55;101166.91;;;12.60;86.26
64253;BME280;50592;52.958;-7.470;2022-07-26T07:16:20;101168.75;;;12.59;86.00
64253;BME280;50592;52.958;-7.470;2022-07-26T07:18:46;101171.25;;;12.61;86.15
64253;BME280;50592;52.958;-7.470;2022-07-26T07:21:13;101173.91;;;12.71;85.79
64253;BME280;50592;52.958;-7.470;2022-07-26T07:23:39;101169.28;;;12.73;85.80
64253;BME280;50592;52.958;-7.470;2022-07-26T07:26:05;101177.53;;;12.80;85.60
64253;BME280;50592;52.958;-7.470;2022-07-26T07:28:31;101185.19;;;12.83;85.65
64253;BME280;50592;52.958;-7.470;2022-07-26T07:30:58;101177.09;;;12.84;85.26
64253;BME280;50592;52.958;-7.470;2022-07-26T07:33:24;101175.72;;;12.70;85.40
64253;BME280;50592;52.958;-7.470;2022-07-26T07:35:50;101178.22;;;12.62;85.60
64253;BME280;50592;52.958;-7.470;2022-07-26T07:38:17;101182.41;;;12.55;85.97
64253;BME280;50592;52.958;-7.470;2022-07-26T07:40:42;101186.31;;;12.50;86.24
64253;BME280;50592;52.958;-7.470;2022-07-26T07:43:08;101191.31;;;12.53;87.12
64253;BME280;50592;52.958;-7.470;2022-07-26T07:45:34;101192.88;;;12.56;87.63
64253;BME280;50592;52.958;-7.470;2022-07-26T07:48:00;101190.09;;;12.58;87.81
64253;BME280;50592;52.958;-7.470;2022-07-26T07:50:26;101200.97;;;12.55;88.29
64253;BME280;50592;52.958;-7.470;2022-07-26T07:52:52;101196.22;;;12.48;88.71
64253;BME280;50592;52.958;-7.470;2022-07-26T07:55:18;101192.75;;;12.58;88.30
64253;BME280;50592;52.958;-7.470;2022-07-26T07:57:44;101187.59;;;12.66;88.11
64253;BME280;50592;52.958;-7.470;2022-07-26T08:00:10;101188.53;;;12.65;87.42
64253;BME280;50592;52.958;-7.470;2022-07-26T08:02:37;101196.66;;;12.63;87.12
64253;BME280;50592;52.958;-7.470;2022-07-26T08:05:03;101197.78;;;12.71;86.91
64253;BME280;50592;52.958;-7.470;2022-07-26T08:07:32;101194.16;;;12.82;86.63
64253;BME280;50592;52.958;-7.470;2022-07-26T08:09:58;101203.63;;;12.84;86.35
64253;BME280;50592;52.958;-7.470;2022-07-26T08:12:24;101196.50;;;12.85;86.05
64253;BME280;50592;52.958;-7.470;2022-07-26T08:14:49;101200.84;;;12.86;85.95
64253;BME280;50592;52.958;-7.470;2022-07-26T08:17:15;101192.72;;;12.87;85.75
64253;BME280;50592;52.958;-7.470;2022-07-26T08:19:41;101199.97;;;12.95;85.74
64253;BME280;50592;52.958;-7.470;2022-07-26T08:22:08;101195.50;;;13.06;85.52
64253;BME280;50592;52.958;-7.470;2022-07-26T08:24:34;101196.03;;;13.09;84.74
64253;BME280;50592;52.958;-7.470;2022-07-26T08:27:00;101195.47;;;13.25;85.12
64253;BME280;50592;52.958;-7.470;2022-07-26T08:29:25;101185.66;;;13.36;84.10
64253;BME280;50592;52.958;-7.470;2022-07-26T08:31:51;101193.19;;;13.50;83.73
64253;BME280;50592;52.958;-7.470;2022-07-26T08:34:18;101190.41;;;13.52;82.46
64253;BME280;50592;52.958;-7.470;2022-07-26T08:36:46;101187.00;;;13.60;82.16
64253;BME280;50592;52.958;-7.470;2022-07-26T08:39:12;101186.63;;;13.83;81.51
64253;BME280;50592;52.958;-7.470;2022-07-26T08:41:38;101186.22;;;14.06;81.20
64253;BME280;50592;52.958;-7.470;2022-07-26T08:44:08;101190.66;;;14.15;79.24
64253;BME280;50592;52.958;-7.470;2022-07-26T08:46:36;101185.09;;;14.08;78.17
64253;BME280;50592;52.958;-7.470;2022-07-26T08:49:04;101185.13;;;13.98;77.25
64253;BME280;50592;52.958;-7.470;2022-07-26T08:51:31;101188.63;;;13.99;77.30
64253;BME280;50592;52.958;-7.470;2022-07-26T08:53:59;101180.75;;;14.07;77.17
64253;BME280;50592;52.958;-7.470;2022-07-26T08:56:26;101187.06;;;14.06;75.74
64253;BME280;50592;52.958;-7.470;2022-07-26T08:58:52;101185.88;;;14.19;75.55
64253;BME280;50592;52.958;-7.470;2022-07-26T09:01:17;101184.81;;;14.30;74.81
64253;BME280;50592;52.958;-7.470;2022-07-26T09:03:44;101184.81;;;14.48;74.85
64253;BME280;50592;52.958;-7.470;2022-07-26T09:06:20;101188.94;;;14.60;73.95
64253;BME280;50592;52.958;-7.470;2022-07-26T09:08:49;101192.34;;;14.71;73.16
64253;BME280;50592;52.958;-7.470;2022-07-26T09:13:54;101182.63;;;14.80;71.39
64253;BME280;50592;52.958;-7.470;2022-07-26T09:16:20;101195.53;;;14.74;71.11
64253;BME280;50592;52.958;-7.470;2022-07-26T09:18:46;101186.16;;;14.70;70.26
64253;BME280;50592;52.958;-7.470;2022-07-26T09:21:32;101184.75;;;14.58;69.97
64253;BME280;50592;52.958;-7.470;2022-07-26T09:24:00;101188.31;;;14.67;70.66
64253;BME280;50592;52.958;-7.470;2022-07-26T09:26:27;101191.28;;;14.63;69.92
64253;BME280;50592;52.958;-7.470;2022-07-26T09:29:10;101194.25;;;14.60;68.71
64253;BME280;50592;52.958;-7.470;2022-07-26T09:31:37;101201.16;;;14.53;69.90
64253;BME280;50592;52.958;-7.470;2022-07-26T09:34:04;101197.50;;;14.54;69.69
64253;BME280;50592;52.958;-7.470;2022-07-26T09:36:31;101196.00;;;14.51;69.36
64253;BME280;50592;52.958;-7.470;2022-07-26T09:39:00;101201.09;;;14.63;69.43
64253;BME280;50592;52.958;-7.470;2022-07-26T09:41:30;101206.34;;;14.73;68.99
64253;BME280;50592;52.958;-7.470;2022-07-26T09:43:58;101197.63;;;14.81;67.77
64253;BME280;50592;52.958;-7.470;2022-07-26T09:46:29;101200.34;;;14.89;66.44
64253;BME280;50592;52.958;-7.470;2022-07-26T09:48:56;101197.94;;;15.04;65.83
64253;BME280;50592;52.958;-7.470;2022-07-26T09:51:42;101208.13;;;15.09;63.97
64253;BME280;50592;52.958;-7.470;2022-07-26T09:54:10;101210.84;;;15.17;63.54
64253;BME280;50592;52.958;-7.470;2022-07-26T09:56:50;101205.84;;;15.14;62.01
64253;BME280;50592;52.958;-7.470;2022-07-26T09:59:18;101204.91;;;15.23;62.07
64253;BME280;50592;52.958;-7.470;2022-07-26T10:01:45;101211.38;;;15.21;61.79
64253;BME280;50592;52.958;-7.470;2022-07-26T10:04:12;101206.16;;;15.11;62.11
64253;BME280;50592;52.958;-7.470;2022-07-26T10:06:39;101203.81;;;15.08;62.05
64253;BME280;50592;52.958;-7.470;2022-07-26T10:09:06;101210.16;;;15.15;61.87
64253;BME280;50592;52.958;-7.470;2022-07-26T10:11:43;101207.59;;;15.05;59.59
64253;BME280;50592;52.958;-7.470;2022-07-26T10:20:00;101210.22;;;14.97;59.72
64253;BME280;50592;52.958;-7.470;2022-07-26T10:22:29;101209.00;;;14.91;60.29
64253;BME280;50592;52.958;-7.470;2022-07-26T10:27:47;101209.31;;;14.70;60.60
64253;BME280;50592;52.958;-7.470;2022-07-26T10:33:12;101201.63;;;14.85;59.93
64253;BME280;50592;52.958;-7.470;2022-07-26T10:35:40;101201.84;;;14.92;60.85
64253;BME280;50592;52.958;-7.470;2022-07-26T10:38:23;101204.59;;;15.00;60.70
64253;BME280;50592;52.958;-7.470;2022-07-26T10:41:02;101202.06;;;14.98;61.34
64253;BME280;50592;52.958;-7.470;2022-07-26T10:43:29;101202.75;;;15.00;61.74
64253;BME280;50592;52.958;-7.470;2022-07-26T10:49:03;101205.88;;;14.78;61.08
64253;BME280;50592;52.958;-7.470;2022-07-26T10:51:33;101218.91;;;14.81;62.19
64253;BME280;50592;52.958;-7.470;2022-07-26T10:54:07;101206.63;;;14.70;62.90
64253;BME280;50592;52.958;-7.470;2022-07-26T10:56:33;101219.03;;;14.43;63.99
64253;BME280;50592;52.958;-7.470;2022-07-26T10:59:01;101228.94;;;14.22;64.55
64253;BME280;50592;52.958;-7.470;2022-07-26T11:01:38;101221.47;;;14.08;64.15
64253;BME280;50592;52.958;-7.470;2022-07-26T11:04:05;101225.50;;;14.12;64.59
64253;BME280;50592;52.958;-7.470;2022-07-26T11:06:41;101226.34;;;14.12;64.23
64253;BME280;50592;52.958;-7.470;2022-07-26T11:09:10;101215.41;;;14.16;64.23
64253;BME280;50592;52.958;-7.470;2022-07-26T11:11:37;101229.72;;;14.33;63.95
64253;BME280;50592;52.958;-7.470;2022-07-26T11:14:13;101233.78;;;14.55;62.91
64253;BME280;50592;52.958;-7.470;2022-07-26T11:16:41;101228.38;;;14.65;61.43
64253;BME280;50592;52.958;-7.470;2022-07-26T11:19:26;101229.25;;;14.84;61.15
64253;BME280;50592;52.958;-7.470;2022-07-26T11:21:58;101229.59;;;15.07;60.93
64253;BME280;50592;52.958;-7.470;2022-07-26T11:24:25;101232.56;;;15.31;61.03
64253;BME280;50592;52.958;-7.470;2022-07-26T11:26:51;101230.66;;;15.41;60.14
64253;BME280;50592;52.958;-7.470;2022-07-26T11:29:31;101231.69;;;15.48;59.08
64253;BME280;50592;52.958;-7.470;2022-07-26T11:31:59;101233.25;;;15.59;59.16
64253;BME280;50592;52.958;-7.470;2022-07-26T11:34:28;101219.16;;;15.75;58.75
64253;BME280;50592;52.958;-7.470;2022-07-26T11:36:57;101220.88;;;15.85;58.39
64253;BME280;50592;52.958;-7.470;2022-07-26T11:39:34;101216.97;;;16.06;58.70
64253;BME280;50592;52.958;-7.470;2022-07-26T11:42:08;101218.88;;;16.22;58.53
64253;BME280;50592;52.958;-7.470;2022-07-26T11:44:35;101216.91;;;16.32;58.95
64253;BME280;50592;52.958;-7.470;2022-07-26T11:47:18;101215.22;;;16.31;57.64
64253;BME280;50592;52.958;-7.470;2022-07-26T11:49:45;101215.06;;;16.33;58.44
64253;BME280;50592;52.958;-7.470;2022-07-26T11:52:11;101222.69;;;16.28;58.19
64253;BME280;50592;52.958;-7.470;2022-07-26T11:54:49;101215.41;;;16.38;57.50
64253;BME280;50592;52.958;-7.470;2022-07-26T11:57:17;101229.72;;;16.29;58.06
64253;BME280;50592;52.958;-7.470;2022-07-26T11:59:44;101221.00;;;16.18;58.01
64253;BME280;50592;52.958;-7.470;2022-07-26T12:02:11;101217.53;;;16.26;58.16
64253;BME280;50592;52.958;-7.470;2022-07-26T12:04:39;101218.56;;;16.50;57.62
64253;BME280;50592;52.958;-7.470;2022-07-26T12:07:10;101214.25;;;16.74;56.98
64253;BME280;50592;52.958;-7.470;2022-07-26T12:12:06;101214.78;;;17.11;56.49
64253;BME280;50592;52.958;-7.470;2022-07-26T12:14:35;101218.31;;;17.11;56.47
64253;BME280;50592;52.958;-7.470;2022-07-26T12:17:11;101218.47;;;16.77;56.04
64253;BME280;50592;52.958;-7.470;2022-07-26T12:19:38;101216.75;;;16.51;57.72
64253;BME280;50592;52.958;-7.470;2022-07-26T12:29:50;101231.00;;;16.08;58.51
64253;BME280;50592;52.958;-7.470;2022-07-26T12:32:20;101228.75;;;15.95;59.16
64253;BME280;50592;52.958;-7.470;2022-07-26T12:35:02;101229.66;;;16.04;58.97
64253;BME280;50592;52.958;-7.470;2022-07-26T12:37:31;101233.56;;;15.91;59.47
64253;BME280;50592;52.958;-7.470;2022-07-26T12:40:08;101229.19;;;15.82;58.96
64253;BME280;50592;52.958;-7.470;2022-07-26T12:42:36;101234.03;;;15.78;59.44
64253;BME280;50592;52.958;-7.470;2022-07-26T12:45:07;101229.75;;;15.94;59.08
64253;BME280;50592;52.958;-7.470;2022-07-26T12:47:41;101225.63;;;15.99;58.53
64253;BME280;50592;52.958;-7.470;2022-07-26T12:50:10;101227.81;;;16.04;58.61
64253;BME280;50592;52.958;-7.470;2022-07-26T12:52:38;101224.34;;;16.12;58.51
64253;BME280;50592;52.958;-7.470;2022-07-26T12:55:06;101219.88;;;16.21;58.26
64253;BME280;50592;52.958;-7.470;2022-07-26T12:57:32;101214.41;;;16.31;57.83
64253;BME280;50592;52.958;-7.470;2022-07-26T12:59:58;101224.44;;;16.54;57.52
64253;BME280;50592;52.958;-7.470;2022-07-26T13:02:24;101221.28;;;16.67;57.09
64253;BME280;50592;52.958;-7.470;2022-07-26T13:04:51;101226.78;;;16.82;56.33
64253;BME280;50592;52.958;-7.470;2022-07-26T13:07:18;101225.13;;;16.89;56.30
64253;BME280;50592;52.958;-7.470;2022-07-26T13:09:45;101216.94;;;16.99;55.65